sensor_id;sensor_type;location;lat;lon;timestamp;P1;durP1;ratioP1;P2;durP2;ratioP2
58196;SDS011;43999;51.660;5.616;2023-02-24T00:00:38;25.40;;;9.40;;
58196;SDS011;43999;51.660;5.616;2023-02-24T00:03:26;19.95;;;9.02;;
58196;SDS011;43999;51.660;5.616;2023-02-24T00:05:59;24.60;;;10.07;;
58196;SDS011;43999;51.660;5.616;2023-02-24T00:08:44;23.52;;;10.85;;
58196;SDS011;43999;51.660;5.616;2023-02-24T00:11:54;21.55;;;8.90;;
58196;SDS011;43999;51.660;5.616;2023-02-24T00:14:32;26.10;;;9.80;;
58196;SDS011;43999;51.660;5.616;2023-02-24T00:17:22;25.20;;;10.15;;
58196;SDS011;43999;51.660;5.616;2023-02-24T00:19:56;21.63;;;8.82;;
58196;SDS011;43999;51.660;5.616;2023-02-24T00:22:32;22.33;;;9.45;;
58196;SDS011;43999;51.660;5.616;2023-02-24T00:25:05;20.98;;;8.65;;
58196;SDS011;43999;51.660;5.616;2023-02-24T00:27:43;24.83;;;9.93;;
58196;SDS011;43999;51.660;5.616;2023-02-24T00:30:14;25.35;;;8.73;;
58196;SDS011;43999;51.660;5.616;2023-02-24T00:33:12;29.40;;;9.30;;
58196;SDS011;43999;51.660;5.616;2023-02-24T00:35:42;22.85;;;9.48;;
58196;SDS011;43999;51.660;5.616;2023-02-24T00:38:33;19.17;;;9.23;;
58196;SDS011;43999;51.660;5.616;2023-02-24T00:41:42;21.42;;;9.05;;
58196;SDS011;43999;51.660;5.616;2023-02-24T00:44:14;19.73;;;9.98;;
58196;SDS011;43999;51.660;5.616;2023-02-24T00:46:43;22.75;;;9.50;;
58196;SDS011;43999;51.660;5.616;2023-02-24T00:49:21;19.45;;;8.35;;
58196;SDS011;43999;51.660;5.616;2023-02-24T00:51:53;19.80;;;9.10;;
58196;SDS011;43999;51.660;5.616;2023-02-24T00:54:25;29.42;;;9.95;;
58196;SDS011;43999;51.660;5.616;2023-02-24T00:57:07;22.42;;;10.25;;
58196;SDS011;43999;51.660;5.616;2023-02-24T00:59:46;19.23;;;10.02;;
58196;SDS011;43999;51.660;5.616;2023-02-24T01:02:23;21.17;;;8.75;;
58196;SDS011;43999;51.660;5.616;2023-02-24T01:05:06;17.83;;;8.55;;
58196;SDS011;43999;51.660;5.616;2023-02-24T01:07:55;19.05;;;8.82;;
58196;SDS011;43999;51.660;5.616;2023-02-24T01:10:34;23.92;;;8.57;;
58196;SDS011;43999;51.660;5.616;2023-02-24T01:13:07;19.38;;;7.93;;
58196;SDS011;43999;51.660;5.616;2023-02-24T01:15:35;21.05;;;9.00;;
58196;SDS011;43999;51.660;5.616;2023-02-24T01:18:09;21.70;;;8.40;;
58196;SDS011;43999;51.660;5.616;2023-02-24T01:20:53;18.35;;;8.00;;
58196;SDS011;43999;51.660;5.616;2023-02-24T01:23:37;18.45;;;8.88;;
58196;SDS011;43999;51.660;5.616;2023-02-24T01:26:21;21.08;;;8.60;;
58196;SDS011;43999;51.660;5.616;2023-02-24T01:29:03;15.88;;;7.72;;
58196;SDS011;43999;51.660;5.616;2023-02-24T01:31:39;22.90;;;7.53;;
58196;SDS011;43999;51.660;5.616;2023-02-24T01:34:31;21.13;;;7.38;;
58196;SDS011;43999;51.660;5.616;2023-02-24T01:37:10;19.33;;;7.53;;
58196;SDS011;43999;51.660;5.616;2023-02-24T01:42:27;13.10;;;6.85;;
58196;SDS011;43999;51.660;5.616;2023-02-24T01:45:04;25.63;;;9.10;;
58196;SDS011;43999;51.660;5.616;2023-02-24T01:47:58;15.50;;;7.63;;
58196;SDS011;43999;51.660;5.616;2023-02-24T01:50:50;15.85;;;7.50;;
58196;SDS011;43999;51.660;5.616;2023-02-24T01:53:21;14.85;;;6.70;;
58196;SDS011;43999;51.660;5.616;2023-02-24T01:56:24;18.45;;;7.20;;
58196;SDS011;43999;51.660;5.616;2023-02-24T02:01:37;22.55;;;7.45;;
58196;SDS011;43999;51.660;5.616;2023-02-24T02:08:04;14.88;;;6.75;;
58196;SDS011;43999;51.660;5.616;2023-02-24T02:10:46;15.20;;;8.02;;
58196;SDS011;43999;51.660;5.616;2023-02-24T02:13:18;16.50;;;6.55;;
58196;SDS011;43999;51.660;5.616;2023-02-24T02:19:45;12.00;;;6.28;;
58196;SDS011;43999;51.660;5.616;2023-02-24T02:30:57;15.18;;;6.75;;
58196;SDS011;43999;51.660;5.616;2023-02-24T02:34:16;20.15;;;7.32;;
58196;SDS011;43999;51.660;5.616;2023-02-24T02:37:36;15.30;;;7.50;;
58196;SDS011;43999;51.660;5.616;2023-02-24T02:44:08;11.68;;;7.10;;
58196;SDS011;43999;51.660;5.616;2023-02-24T02:47:27;16.98;;;6.90;;
58196;SDS011;43999;51.660;5.616;2023-02-24T02:50:38;16.33;;;7.15;;
58196;SDS011;43999;51.660;5.616;2023-02-24T02:53:41;16.85;;;8.00;;
58196;SDS011;43999;51.660;5.616;2023-02-24T02:56:35;17.73;;;7.20;;
58196;SDS011;43999;51.660;5.616;2023-02-24T02:59:25;14.10;;;7.15;;
58196;SDS011;43999;51.660;5.616;2023-02-24T03:02:01;26.10;;;9.48;;
58196;SDS011;43999;51.660;5.616;2023-02-24T03:04:55;17.38;;;8.00;;
58196;SDS011;43999;51.660;5.616;2023-02-24T03:07:40;10.70;;;7.10;;
58196;SDS011;43999;51.660;5.616;2023-02-24T03:10:25;15.63;;;8.00;;
58196;SDS011;43999;51.660;5.616;2023-02-24T03:13:17;13.65;;;7.55;;
58196;SDS011;43999;51.660;5.616;2023-02-24T03:16:01;15.45;;;7.63;;
58196;SDS011;43999;51.660;5.616;2023-02-24T03:18:51;18.27;;;7.07;;
58196;SDS011;43999;51.660;5.616;2023-02-24T03:21:43;13.65;;;7.32;;
58196;SDS011;43999;51.660;5.616;2023-02-24T03:24:30;17.10;;;6.93;;
58196;SDS011;43999;51.660;5.616;2023-02-24T03:27:54;15.57;;;8.43;;
58196;SDS011;43999;51.660;5.616;2023-02-24T03:30:47;14.20;;;7.47;;
58196;SDS011;43999;51.660;5.616;2023-02-24T03:34:31;12.07;;;7.05;;
58196;SDS011;43999;51.660;5.616;2023-02-24T03:37:41;23.45;;;10.07;;
58196;SDS011;43999;51.660;5.616;2023-02-24T03:40:33;19.08;;;7.38;;
58196;SDS011;43999;51.660;5.616;2023-02-24T03:43:23;13.75;;;7.53;;
58196;SDS011;43999;51.660;5.616;2023-02-24T03:46:25;12.88;;;7.32;;
58196;SDS011;43999;51.660;5.616;2023-02-24T03:49:07;18.92;;;8.65;;
58196;SDS011;43999;51.660;5.616;2023-02-24T03:55:40;17.33;;;8.68;;
58196;SDS011;43999;51.660;5.616;2023-02-24T04:02:32;15.15;;;8.48;;
58196;SDS011;43999;51.660;5.616;2023-02-24T04:05:09;13.73;;;6.28;;
58196;SDS011;43999;51.660;5.616;2023-02-24T04:07:58;20.50;;;8.20;;
58196;SDS011;43999;51.660;5.616;2023-02-24T04:10:59;17.73;;;9.55;;
58196;SDS011;43999;51.660;5.616;2023-02-24T04:17:45;19.27;;;8.63;;
58196;SDS011;43999;51.660;5.616;2023-02-24T04:20:37;25.02;;;8.00;;
58196;SDS011;43999;51.660;5.616;2023-02-24T04:23:32;15.88;;;7.72;;
58196;SDS011;43999;51.660;5.616;2023-02-24T04:26:17;13.65;;;7.53;;
58196;SDS011;43999;51.660;5.616;2023-02-24T04:28:58;14.38;;;6.90;;
58196;SDS011;43999;51.660;5.616;2023-02-24T04:31:31;12.85;;;8.57;;
58196;SDS011;43999;51.660;5.616;2023-02-24T04:34:40;18.92;;;7.93;;
58196;SDS011;43999;51.660;5.616;2023-02-24T04:37:43;15.38;;;7.13;;
58196;SDS011;43999;51.660;5.616;2023-02-24T04:40:52;10.38;;;7.10;;
58196;SDS011;43999;51.660;5.616;2023-02-24T04:43:23;10.80;;;7.20;;
58196;SDS011;43999;51.660;5.616;2023-02-24T04:46:08;12.23;;;6.40;;
58196;SDS011;43999;51.660;5.616;2023-02-24T04:48:59;12.90;;;5.45;;
58196;SDS011;43999;51.660;5.616;2023-02-24T04:51:45;10.27;;;6.13;;
58196;SDS011;43999;51.660;5.616;2023-02-24T04:54:32;16.35;;;6.82;;
58196;SDS011;43999;51.660;5.616;2023-02-24T04:57:14;16.25;;;6.30;;
58196;SDS011;43999;51.660;5.616;2023-02-24T04:59:53;12.32;;;4.80;;
58196;SDS011;43999;51.660;5.616;2023-02-24T05:02:29;13.43;;;7.38;;
58196;SDS011;43999;51.660;5.616;2023-02-24T05:05:14;11.55;;;6.00;;
58196;SDS011;43999;51.660;5.616;2023-02-24T05:08:05;15.48;;;5.82;;
58196;SDS011;43999;51.660;5.616;2023-02-24T05:10:43;10.52;;;5.28;;
58196;SDS011;43999;51.660;5.616;2023-02-24T05:13:18;13.40;;;6.35;;
58196;SDS011;43999;51.660;5.616;2023-02-24T05:16:16;15.43;;;6.75;;
58196;SDS011;43999;51.660;5.616;2023-02-24T05:18:52;11.80;;;4.47;;
58196;SDS011;43999;51.660;5.616;2023-02-24T05:21:48;12.95;;;4.85;;
58196;SDS011;43999;51.660;5.616;2023-02-24T05:24:25;12.20;;;5.28;;
58196;SDS011;43999;51.660;5.616;2023-02-24T05:27:16;10.30;;;4.50;;
58196;SDS011;43999;51.660;5.616;2023-02-24T05:30:14;10.75;;;5.47;;
58196;SDS011;43999;51.660;5.616;2023-02-24T05:32:43;15.02;;;7.05;;
58196;SDS011;43999;51.660;5.616;2023-02-24T05:35:14;10.73;;;6.35;;
58196;SDS011;43999;51.660;5.616;2023-02-24T05:37:47;12.20;;;5.95;;
58196;SDS011;43999;51.660;5.616;2023-02-24T05:40:52;12.02;;;5.88;;
58196;SDS011;43999;51.660;5.616;2023-02-24T05:43:55;13.73;;;5.93;;
58196;SDS011;43999;51.660;5.616;2023-02-24T05:46:43;11.60;;;5.95;;
58196;SDS011;43999;51.660;5.616;2023-02-24T05:49:22;11.43;;;5.60;;
58196;SDS011;43999;51.660;5.616;2023-02-24T05:52:40;9.52;;;5.82;;
58196;SDS011;43999;51.660;5.616;2023-02-24T05:55:32;12.48;;;5.40;;
58196;SDS011;43999;51.660;5.616;2023-02-24T05:58:09;13.10;;;5.50;;
58196;SDS011;43999;51.660;5.616;2023-02-24T06:00:48;16.58;;;5.75;;
58196;SDS011;43999;51.660;5.616;2023-02-24T06:04:03;21.83;;;6.82;;
58196;SDS011;43999;51.660;5.616;2023-02-24T06:07:03;10.80;;;5.15;;
58196;SDS011;43999;51.660;5.616;2023-02-24T06:10:07;8.70;;;5.18;;
58196;SDS011;43999;51.660;5.616;2023-02-24T06:13:15;11.48;;;5.25;;
58196;SDS011;43999;51.660;5.616;2023-02-24T06:16:13;8.27;;;4.90;;
58196;SDS011;43999;51.660;5.616;2023-02-24T06:19:01;12.75;;;5.85;;
58196;SDS011;43999;51.660;5.616;2023-02-24T06:24:39;13.45;;;5.00;;
58196;SDS011;43999;51.660;5.616;2023-02-24T06:27:18;14.18;;;6.20;;
58196;SDS011;43999;51.660;5.616;2023-02-24T06:30:08;12.98;;;5.35;;
58196;SDS011;43999;51.660;5.616;2023-02-24T06:32:41;12.48;;;5.00;;
58196;SDS011;43999;51.660;5.616;2023-02-24T06:35:15;10.27;;;5.05;;
58196;SDS011;43999;51.660;5.616;2023-02-24T06:37:50;17.13;;;5.65;;
58196;SDS011;43999;51.660;5.616;2023-02-24T06:40:30;15.18;;;7.72;;
58196;SDS011;43999;51.660;5.616;2023-02-24T06:43:01;9.45;;;4.50;;
58196;SDS011;43999;51.660;5.616;2023-02-24T06:45:31;15.13;;;5.40;;
58196;SDS011;43999;51.660;5.616;2023-02-24T06:48:00;10.93;;;5.07;;
58196;SDS011;43999;51.660;5.616;2023-02-24T06:50:36;8.65;;;4.90;;
58196;SDS011;43999;51.660;5.616;2023-02-24T06:53:18;15.60;;;5.72;;
58196;SDS011;43999;51.660;5.616;2023-02-24T06:55:55;11.32;;;4.70;;
58196;SDS011;43999;51.660;5.616;2023-02-24T06:58:24;8.45;;;4.35;;
58196;SDS011;43999;51.660;5.616;2023-02-24T07:00:54;15.93;;;5.13;;
58196;SDS011;43999;51.660;5.616;2023-02-24T07:03:25;16.65;;;4.88;;
58196;SDS011;43999;51.660;5.616;2023-02-24T07:06:08;11.00;;;4.90;;
58196;SDS011;43999;51.660;5.616;2023-02-24T07:09:23;10.10;;;4.93;;
58196;SDS011;43999;51.660;5.616;2023-02-24T07:11:54;9.15;;;4.68;;
58196;SDS011;43999;51.660;5.616;2023-02-24T07:14:32;15.18;;;5.15;;
58196;SDS011;43999;51.660;5.616;2023-02-24T07:17:04;13.40;;;4.30;;
58196;SDS011;43999;51.660;5.616;2023-02-24T07:19:40;17.02;;;4.32;;
58196;SDS011;43999;51.660;5.616;2023-02-24T07:22:17;12.57;;;4.85;;
58196;SDS011;43999;51.660;5.616;2023-02-24T07:25:11;11.68;;;4.40;;
58196;SDS011;43999;51.660;5.616;2023-02-24T07:28:11;15.90;;;8.13;;
58196;SDS011;43999;51.660;5.616;2023-02-24T07:30:53;8.60;;;4.38;;
58196;SDS011;43999;51.660;5.616;2023-02-24T07:33:36;12.02;;;3.63;;
58196;SDS011;43999;51.660;5.616;2023-02-24T07:36:21;16.27;;;5.13;;
58196;SDS011;43999;51.660;5.616;2023-02-24T07:39:01;8.50;;;4.72;;
58196;SDS011;43999;51.660;5.616;2023-02-24T07:41:45;9.50;;;3.80;;
58196;SDS011;43999;51.660;5.616;2023-02-24T07:44:16;10.13;;;4.80;;
58196;SDS011;43999;51.660;5.616;2023-02-24T07:46:46;8.27;;;4.30;;
58196;SDS011;43999;51.660;5.616;2023-02-24T07:49:20;10.50;;;3.90;;
58196;SDS011;43999;51.660;5.616;2023-02-24T07:51:59;13.75;;;5.20;;
58196;SDS011;43999;51.660;5.616;2023-02-24T07:54:30;6.30;;;4.38;;
58196;SDS011;43999;51.660;5.616;2023-02-24T07:57:00;13.77;;;6.00;;
58196;SDS011;43999;51.660;5.616;2023-02-24T07:59:29;10.85;;;3.97;;
58196;SDS011;43999;51.660;5.616;2023-02-24T08:02:00;8.23;;;3.85;;
58196;SDS011;43999;51.660;5.616;2023-02-24T08:04:33;9.98;;;5.53;;
58196;SDS011;43999;51.660;5.616;2023-02-24T08:07:06;9.73;;;3.90;;
58196;SDS011;43999;51.660;5.616;2023-02-24T08:09:41;8.77;;;5.18;;
58196;SDS011;43999;51.660;5.616;2023-02-24T08:12:30;12.68;;;3.92;;
58196;SDS011;43999;51.660;5.616;2023-02-24T08:15:02;8.48;;;3.83;;
58196;SDS011;43999;51.660;5.616;2023-02-24T08:17:56;9.50;;;4.30;;
58196;SDS011;43999;51.660;5.616;2023-02-24T08:20:30;7.93;;;3.80;;
58196;SDS011;43999;51.660;5.616;2023-02-24T08:23:17;12.15;;;4.13;;
58196;SDS011;43999;51.660;5.616;2023-02-24T08:25:45;10.23;;;4.43;;
58196;SDS011;43999;51.660;5.616;2023-02-24T08:28:17;8.48;;;3.55;;
58196;SDS011;43999;51.660;5.616;2023-02-24T08:31:01;6.65;;;3.95;;
58196;SDS011;43999;51.660;5.616;2023-02-24T08:33:37;16.40;;;6.20;;
58196;SDS011;43999;51.660;5.616;2023-02-24T08:36:10;7.82;;;4.20;;
58196;SDS011;43999;51.660;5.616;2023-02-24T08:38:39;12.15;;;4.85;;
58196;SDS011;43999;51.660;5.616;2023-02-24T08:41:21;10.73;;;4.00;;
58196;SDS011;43999;51.660;5.616;2023-02-24T08:44:30;7.75;;;3.42;;
58196;SDS011;43999;51.660;5.616;2023-02-24T08:47:02;9.93;;;5.32;;
58196;SDS011;43999;51.660;5.616;2023-02-24T08:49:52;15.32;;;5.22;;
58196;SDS011;43999;51.660;5.616;2023-02-24T08:52:21;11.02;;;4.00;;
58196;SDS011;43999;51.660;5.616;2023-02-24T08:54:59;7.07;;;3.72;;
58196;SDS011;43999;51.660;5.616;2023-02-24T08:57:39;8.90;;;3.40;;
58196;SDS011;43999;51.660;5.616;2023-02-24T09:00:24;9.07;;;4.50;;
58196;SDS011;43999;51.660;5.616;2023-02-24T09:03:21;9.15;;;4.22;;
58196;SDS011;43999;51.660;5.616;2023-02-24T09:06:04;9.40;;;4.30;;
58196;SDS011;43999;51.660;5.616;2023-02-24T09:08:36;13.48;;;5.18;;
58196;SDS011;43999;51.660;5.616;2023-02-24T09:11:14;7.45;;;3.65;;
58196;SDS011;43999;51.660;5.616;2023-02-24T09:13:53;11.35;;;4.00;;
58196;SDS011;43999;51.660;5.616;2023-02-24T09:16:27;14.95;;;4.28;;
58196;SDS011;43999;51.660;5.616;2023-02-24T09:18:57;9.73;;;4.82;;
58196;SDS011;43999;51.660;5.616;2023-02-24T09:22:04;11.07;;;4.70;;
58196;SDS011;43999;51.660;5.616;2023-02-24T09:25:23;8.63;;;4.47;;
58196;SDS011;43999;51.660;5.616;2023-02-24T09:28:18;10.30;;;3.45;;
58196;SDS011;43999;51.660;5.616;2023-02-24T09:33:51;19.30;;;4.95;;
58196;SDS011;43999;51.660;5.616;2023-02-24T09:36:28;11.68;;;3.83;;
58196;SDS011;43999;51.660;5.616;2023-02-24T09:39:11;10.95;;;3.50;;
58196;SDS011;43999;51.660;5.616;2023-02-24T09:42:39;7.25;;;4.70;;
58196;SDS011;43999;51.660;5.616;2023-02-24T09:45:58;15.63;;;3.83;;
58196;SDS011;43999;51.660;5.616;2023-02-24T09:48:50;7.50;;;4.15;;
58196;SDS011;43999;51.660;5.616;2023-02-24T09:51:43;11.20;;;3.72;;
58196;SDS011;43999;51.660;5.616;2023-02-24T09:54:29;11.00;;;5.22;;
58196;SDS011;43999;51.660;5.616;2023-02-24T09:57:26;11.27;;;4.22;;
58196;SDS011;43999;51.660;5.616;2023-02-24T10:00:13;8.88;;;4.20;;
58196;SDS011;43999;51.660;5.616;2023-02-24T10:03:23;12.40;;;4.10;;
58196;SDS011;43999;51.660;5.616;2023-02-24T10:06:35;11.80;;;5.38;;
58196;SDS011;43999;51.660;5.616;2023-02-24T10:10:28;9.27;;;4.13;;
58196;SDS011;43999;51.660;5.616;2023-02-24T10:13:48;7.57;;;4.57;;
58196;SDS011;43999;51.660;5.616;2023-02-24T10:16:39;6.90;;;3.58;;
58196;SDS011;43999;51.660;5.616;2023-02-24T10:23:04;10.55;;;4.57;;
58196;SDS011;43999;51.660;5.616;2023-02-24T10:26:25;13.45;;;5.30;;
58196;SDS011;43999;51.660;5.616;2023-02-24T10:30:17;8.73;;;4.53;;
58196;SDS011;43999;51.660;5.616;2023-02-24T10:34:28;10.20;;;5.40;;
58196;SDS011;43999;51.660;5.616;2023-02-24T10:37:19;11.65;;;4.85;;
58196;SDS011;43999;51.660;5.616;2023-02-24T10:40:15;9.52;;;4.75;;
58196;SDS011;43999;51.660;5.616;2023-02-24T10:43:18;11.43;;;4.97;;
58196;SDS011;43999;51.660;5.616;2023-02-24T10:46:40;12.25;;;6.10;;
58196;SDS011;43999;51.660;5.616;2023-02-24T10:49:22;9.70;;;4.35;;
58196;SDS011;43999;51.660;5.616;2023-02-24T10:52:34;10.38;;;4.35;;
58196;SDS011;43999;51.660;5.616;2023-02-24T10:55:45;11.52;;;4.88;;
58196;SDS011;43999;51.660;5.616;2023-02-24T10:59:09;6.80;;;4.10;;
58196;SDS011;43999;51.660;5.616;2023-02-24T11:02:17;9.13;;;5.55;;
58196;SDS011;43999;51.660;5.616;2023-02-24T11:04:56;10.63;;;5.78;;
58196;SDS011;43999;51.660;5.616;2023-02-24T11:08:13;9.60;;;4.15;;
58196;SDS011;43999;51.660;5.616;2023-02-24T11:11:11;10.43;;;4.65;;
58196;SDS011;43999;51.660;5.616;2023-02-24T11:15:05;6.75;;;5.00;;
58196;SDS011;43999;51.660;5.616;2023-02-24T11:18:13;14.60;;;6.10;;
58196;SDS011;43999;51.660;5.616;2023-02-24T11:21:01;9.82;;;5.65;;
58196;SDS011;43999;51.660;5.616;2023-02-24T11:24:14;11.77;;;5.35;;
58196;SDS011;43999;51.660;5.616;2023-02-24T11:26:56;8.38;;;4.95;;
58196;SDS011;43999;51.660;5.616;2023-02-24T11:33:05;11.93;;;5.97;;
58196;SDS011;43999;51.660;5.616;2023-02-24T11:46:04;13.68;;;5.95;;
58196;SDS011;43999;51.660;5.616;2023-02-24T11:48:53;13.70;;;6.40;;
58196;SDS011;43999;51.660;5.616;2023-02-24T11:51:33;11.60;;;5.25;;
58196;SDS011;43999;51.660;5.616;2023-02-24T11:54:17;12.10;;;6.90;;
58196;SDS011;43999;51.660;5.616;2023-02-24T11:56:53;14.55;;;6.70;;
58196;SDS011;43999;51.660;5.616;2023-02-24T12:06:13;17.17;;;8.43;;
58196;SDS011;43999;51.660;5.616;2023-02-24T12:09:20;12.07;;;8.00;;
58196;SDS011;43999;51.660;5.616;2023-02-24T12:15:42;14.05;;;8.27;;
58196;SDS011;43999;51.660;5.616;2023-02-24T12:22:14;20.75;;;8.85;;
58196;SDS011;43999;51.660;5.616;2023-02-24T12:24:47;15.95;;;10.18;;
58196;SDS011;43999;51.660;5.616;2023-02-24T12:41:57;15.75;;;8.82;;
58196;SDS011;43999;51.660;5.616;2023-02-24T12:48:16;13.38;;;8.23;;
58196;SDS011;43999;51.660;5.616;2023-02-24T12:55:19;11.65;;;7.78;;
58196;SDS011;43999;51.660;5.616;2023-02-24T12:58:33;13.85;;;7.32;;
58196;SDS011;43999;51.660;5.616;2023-02-24T13:01:23;13.30;;;8.30;;
58196;SDS011;43999;51.660;5.616;2023-02-24T13:04:32;11.35;;;8.38;;
58196;SDS011;43999;51.660;5.616;2023-02-24T13:14:39;13.82;;;7.82;;
58196;SDS011;43999;51.660;5.616;2023-02-24T13:17:16;12.98;;;7.13;;
58196;SDS011;43999;51.660;5.616;2023-02-24T13:19:56;14.07;;;7.72;;
58196;SDS011;43999;51.660;5.616;2023-02-24T13:22:51;13.63;;;6.35;;
58196;SDS011;43999;51.660;5.616;2023-02-24T13:25:32;13.48;;;7.45;;
58196;SDS011;43999;51.660;5.616;2023-02-24T13:28:26;10.15;;;7.63;;
58196;SDS011;43999;51.660;5.616;2023-02-24T13:31:10;13.95;;;7.68;;
58196;SDS011;43999;51.660;5.616;2023-02-24T13:33:43;14.30;;;7.60;;
58196;SDS011;43999;51.660;5.616;2023-02-24T13:36:30;9.52;;;6.95;;
58196;SDS011;43999;51.660;5.616;2023-02-24T13:42:04;17.08;;;8.23;;
58196;SDS011;43999;51.660;5.616;2023-02-24T13:54:57;11.55;;;7.05;;
58196;SDS011;43999;51.660;5.616;2023-02-24T13:58:30;7.55;;;4.70;;
58196;SDS011;43999;51.660;5.616;2023-02-24T14:04:49;6.22;;;4.88;;
58196;SDS011;43999;51.660;5.616;2023-02-24T14:08:20;7.85;;;5.28;;
58196;SDS011;43999;51.660;5.616;2023-02-24T14:11:32;8.80;;;7.50;;
58196;SDS011;43999;51.660;5.616;2023-02-24T14:14:50;10.95;;;5.95;;
58196;SDS011;43999;51.660;5.616;2023-02-24T14:17:29;8.25;;;6.53;;
58196;SDS011;43999;51.660;5.616;2023-02-24T14:20:26;11.05;;;7.18;;
58196;SDS011;43999;51.660;5.616;2023-02-24T14:26:00;13.85;;;9.82;;
58196;SDS011;43999;51.660;5.616;2023-02-24T14:28:45;14.05;;;8.23;;
58196;SDS011;43999;51.660;5.616;2023-02-24T14:31:36;11.23;;;9.00;;
58196;SDS011;43999;51.660;5.616;2023-02-24T14:34:45;12.55;;;10.20;;
58196;SDS011;43999;51.660;5.616;2023-02-24T14:37:26;12.93;;;8.98;;
58196;SDS011;43999;51.660;5.616;2023-02-24T14:40:12;16.95;;;10.07;;
58196;SDS011;43999;51.660;5.616;2023-02-24T14:42:53;14.43;;;9.88;;
58196;SDS011;43999;51.660;5.616;2023-02-24T14:45:27;15.10;;;9.52;;
58196;SDS011;43999;51.660;5.616;2023-02-24T14:48:01;12.35;;;8.68;;
58196;SDS011;43999;51.660;5.616;2023-02-24T14:50:37;13.15;;;9.80;;
58196;SDS011;43999;51.660;5.616;2023-02-24T14:53:08;13.98;;;7.20;;
58196;SDS011;43999;51.660;5.616;2023-02-24T14:55:50;14.55;;;6.28;;
58196;SDS011;43999;51.660;5.616;2023-02-24T14:58:40;13.38;;;5.38;;
58196;SDS011;43999;51.660;5.616;2023-02-24T15:07:30;14.93;;;6.03;;
58196;SDS011;43999;51.660;5.616;2023-02-24T15:10:04;14.32;;;6.82;;
58196;SDS011;43999;51.660;5.616;2023-02-24T15:15:36;14.63;;;5.87;;
58196;SDS011;43999;51.660;5.616;2023-02-24T15:18:10;13.30;;;5.25;;
58196;SDS011;43999;51.660;5.616;2023-02-24T15:21:07;21.13;;;6.50;;
58196;SDS011;43999;51.660;5.616;2023-02-24T15:24:19;14.73;;;7.00;;
58196;SDS011;43999;51.660;5.616;2023-02-24T15:29:41;11.50;;;3.90;;
58196;SDS011;43999;51.660;5.616;2023-02-24T15:32:30;16.98;;;5.18;;
58196;SDS011;43999;51.660;5.616;2023-02-24T15:35:19;12.63;;;4.63;;
58196;SDS011;43999;51.660;5.616;2023-02-24T15:38:00;13.05;;;5.25;;
58196;SDS011;43999;51.660;5.616;2023-02-24T15:40:39;15.20;;;4.22;;
58196;SDS011;43999;51.660;5.616;2023-02-24T15:43:43;11.35;;;3.88;;
58196;SDS011;43999;51.660;5.616;2023-02-24T15:46:29;10.38;;;4.00;;
58196;SDS011;43999;51.660;5.616;2023-02-24T15:49:16;11.82;;;5.72;;
58196;SDS011;43999;51.660;5.616;2023-02-24T15:51:48;12.57;;;3.95;;
58196;SDS011;43999;51.660;5.616;2023-02-24T15:57:11;9.77;;;4.13;;
58196;SDS011;43999;51.660;5.616;2023-02-24T16:00:05;12.03;;;4.17;;
58196;SDS011;43999;51.660;5.616;2023-02-24T16:03:05;13.75;;;5.22;;
58196;SDS011;43999;51.660;5.616;2023-02-24T16:05:59;13.43;;;3.60;;
58196;SDS011;43999;51.660;5.616;2023-02-24T16:08:28;12.50;;;4.90;;
58196;SDS011;43999;51.660;5.616;2023-02-24T16:11:13;10.68;;;4.75;;
58196;SDS011;43999;51.660;5.616;2023-02-24T16:13:58;7.95;;;4.30;;
58196;SDS011;43999;51.660;5.616;2023-02-24T16:16:32;16.88;;;4.80;;
58196;SDS011;43999;51.660;5.616;2023-02-24T16:19:03;7.80;;;3.95;;
58196;SDS011;43999;51.660;5.616;2023-02-24T16:21:44;13.73;;;4.30;;
58196;SDS011;43999;51.660;5.616;2023-02-24T16:24:34;10.98;;;4.32;;
58196;SDS011;43999;51.660;5.616;2023-02-24T16:27:17;14.40;;;4.15;;
58196;SDS011;43999;51.660;5.616;2023-02-24T16:29:59;13.05;;;3.58;;
58196;SDS011;43999;51.660;5.616;2023-02-24T16:32:49;21.77;;;4.80;;
58196;SDS011;43999;51.660;5.616;2023-02-24T16:35:34;9.82;;;3.60;;
58196;SDS011;43999;51.660;5.616;2023-02-24T16:38:13;7.32;;;3.33;;
58196;SDS011;43999;51.660;5.616;2023-02-24T16:40:55;8.38;;;3.40;;
58196;SDS011;43999;51.660;5.616;2023-02-24T16:43:23;7.85;;;2.95;;
58196;SDS011;43999;51.660;5.616;2023-02-24T16:46:06;9.02;;;2.83;;
58196;SDS011;43999;51.660;5.616;2023-02-24T16:49:02;8.25;;;3.10;;
58196;SDS011;43999;51.660;5.616;2023-02-24T16:51:46;8.65;;;2.95;;
58196;SDS011;43999;51.660;5.616;2023-02-24T16:54:24;5.03;;;2.85;;
58196;SDS011;43999;51.660;5.616;2023-02-24T16:57:02;6.85;;;2.63;;
58196;SDS011;43999;51.660;5.616;2023-02-24T16:59:32;6.82;;;3.45;;
58196;SDS011;43999;51.660;5.616;2023-02-24T17:02:17;7.53;;;2.38;;
58196;SDS011;43999;51.660;5.616;2023-02-24T17:05:00;8.73;;;3.40;;
58196;SDS011;43999;51.660;5.616;2023-02-24T17:07:44;8.15;;;3.83;;
58196;SDS011;43999;51.660;5.616;2023-02-24T17:10:23;9.98;;;3.38;;
58196;SDS011;43999;51.660;5.616;2023-02-24T17:13:03;8.10;;;3.83;;
58196;SDS011;43999;51.660;5.616;2023-02-24T17:15:33;7.70;;;2.83;;
58196;SDS011;43999;51.660;5.616;2023-02-24T17:18:12;7.75;;;3.85;;
58196;SDS011;43999;51.660;5.616;2023-02-24T17:20:50;5.30;;;4.00;;
58196;SDS011;43999;51.660;5.616;2023-02-24T17:23:19;5.25;;;2.63;;
58196;SDS011;43999;51.660;5.616;2023-02-24T17:25:51;7.50;;;2.80;;
58196;SDS011;43999;51.660;5.616;2023-02-24T17:28:27;7.00;;;2.97;;
58196;SDS011;43999;51.660;5.616;2023-02-24T17:31:00;4.50;;;2.55;;
58196;SDS011;43999;51.660;5.616;2023-02-24T17:33:35;6.03;;;2.58;;
58196;SDS011;43999;51.660;5.616;2023-02-24T17:36:06;6.35;;;1.88;;
58196;SDS011;43999;51.660;5.616;2023-02-24T17:38:37;4.97;;;2.35;;
58196;SDS011;43999;51.660;5.616;2023-02-24T17:41:09;6.53;;;2.47;;
58196;SDS011;43999;51.660;5.616;2023-02-24T17:43:41;4.30;;;2.42;;
58196;SDS011;43999;51.660;5.616;2023-02-24T17:46:08;7.47;;;3.03;;
58196;SDS011;43999;51.660;5.616;2023-02-24T17:48:41;11.43;;;3.10;;
58196;SDS011;43999;51.660;5.616;2023-02-24T17:51:13;11.73;;;3.58;;
58196;SDS011;43999;51.660;5.616;2023-02-24T17:53:58;5.80;;;2.50;;
58196;SDS011;43999;51.660;5.616;2023-02-24T17:56:47;7.38;;;2.95;;
58196;SDS011;43999;51.660;5.616;2023-02-24T17:59:27;4.60;;;2.47;;
58196;SDS011;43999;51.660;5.616;2023-02-24T18:02:04;10.10;;;3.30;;
58196;SDS011;43999;51.660;5.616;2023-02-24T18:04:38;7.85;;;2.35;;
58196;SDS011;43999;51.660;5.616;2023-02-24T18:07:07;10.60;;;2.60;;
58196;SDS011;43999;51.660;5.616;2023-02-24T18:09:57;9.73;;;3.75;;
58196;SDS011;43999;51.660;5.616;2023-02-24T18:12:33;6.40;;;2.47;;
58196;SDS011;43999;51.660;5.616;2023-02-24T18:15:17;7.60;;;3.20;;
58196;SDS011;43999;51.660;5.616;2023-02-24T18:17:45;10.50;;;3.72;;
58196;SDS011;43999;51.660;5.616;2023-02-24T18:20:19;13.43;;;6.22;;
58196;SDS011;43999;51.660;5.616;2023-02-24T18:22:56;9.80;;;3.25;;
58196;SDS011;43999;51.660;5.616;2023-02-24T18:25:26;11.07;;;4.10;;
58196;SDS011;43999;51.660;5.616;2023-02-24T18:27:56;12.93;;;4.65;;
58196;SDS011;43999;51.660;5.616;2023-02-24T18:30:27;8.77;;;3.28;;
58196;SDS011;43999;51.660;5.616;2023-02-24T18:32:55;9.07;;;3.58;;
58196;SDS011;43999;51.660;5.616;2023-02-24T18:35:33;13.32;;;4.78;;
58196;SDS011;43999;51.660;5.616;2023-02-24T18:38:14;14.00;;;4.28;;
58196;SDS011;43999;51.660;5.616;2023-02-24T18:40:44;11.25;;;4.68;;
58196;SDS011;43999;51.660;5.616;2023-02-24T18:43:18;12.05;;;4.00;;
58196;SDS011;43999;51.660;5.616;2023-02-24T18:45:47;10.23;;;4.38;;
58196;SDS011;43999;51.660;5.616;2023-02-24T18:48:17;11.68;;;4.22;;